Time;durP1;ratioP1;P1;durP2;ratioP2;P2;SDS_P1;SDS_P2;PMS_P1;PMS_P2;Temp;Humidity;BMP_temperature;BMP_pressure;BME280_temperature;BME280_humidity;BME280_pressure;Samples;Min_cycle;Max_cycle;Signal;HPM_P1;HPM_P2
2021/08/14 00:01:24;;;;;;;5.00;4.40;;;20.10;99.90;;;;;;5073921;28;20210;-64
2021/08/14 00:03:49;;;;;;;6.57;4.53;;;20.10;99.90;;;;;;5073937;28;20171;-64
2021/08/14 00:06:16;;;;;;;5.60;5.10;;;20.00;99.90;;;;;;5073809;28;20691;-63
2021/08/14 00:08:44;;;;;;;7.90;5.30;;;20.00;99.90;;;;;;5073341;28;20231;-64
2021/08/14 00:11:10;;;;;;;5.63;5.07;;;20.00;99.90;;;;;;5071622;28;20842;-64
2021/08/14 00:13:36;;;;;;;5.00;4.50;;;19.90;99.90;;;;;;5053733;28;20408;-64
2021/08/14 00:16:02;;;;;;;4.57;4.13;;;19.90;99.90;;;;;;5053780;28;20793;-64
2021/08/14 00:18:28;;;;;;;5.10;4.70;;;19.90;99.90;;;;;;5052036;28;20189;-64
2021/08/14 00:20:53;;;;;;;7.07;5.30;;;19.90;99.90;;;;;;5053705;28;20177;-64
2021/08/14 00:23:19;;;;;;;6.20;5.30;;;19.80;99.90;;;;;;5053822;28;20212;-64
2021/08/14 00:25:45;;;;;;;4.80;4.07;;;19.80;99.90;;;;;;5053337;28;20201;-64
2021/08/14 00:28:11;;;;;;;5.17;4.70;;;19.80;99.90;;;;;;5053064;28;20499;-64
2021/08/14 00:30:36;;;;;;;6.03;5.40;;;19.70;99.90;;;;;;5053495;28;20767;-64
2021/08/14 00:33:02;;;;;;;5.50;4.90;;;19.70;99.90;;;;;;5053537;28;20228;-64
2021/08/14 00:35:28;;;;;;;5.00;4.20;;;19.60;99.90;;;;;;5053547;28;20179;-64
2021/08/14 00:37:55;;;;;;;5.80;4.43;;;19.60;99.90;;;;;;5069577;28;20548;-64
2021/08/14 00:40:21;;;;;;;7.30;4.67;;;19.60;99.90;;;;;;5073472;28;20460;-64
2021/08/14 00:42:46;;;;;;;5.97;5.37;;;19.50;99.90;;;;;;5073252;28;20399;-64
2021/08/14 00:45:12;;;;;;;6.67;5.63;;;19.50;99.90;;;;;;5072784;28;20193;-65
2021/08/14 00:47:43;;;;;;;6.23;5.13;;;19.50;99.90;;;;;;5073075;28;20183;-63
2021/08/14 00:50:12;;;;;;;6.57;5.23;;;19.50;99.90;;;;;;5072246;28;20204;-64
2021/08/14 00:52:38;;;;;;;6.10;5.50;;;19.40;99.90;;;;;;5059748;28;20466;-65
2021/08/14 00:55:04;;;;;;;5.53;5.03;;;19.40;99.90;;;;;;5052977;28;20465;-64
2021/08/14 00:57:30;;;;;;;7.40;5.20;;;19.40;99.90;;;;;;5052865;28;20186;-63
2021/08/14 00:59:56;;;;;;;7.80;5.30;;;19.30;99.90;;;;;;5053292;28;20408;-64
2021/08/14 01:02:22;;;;;;;5.67;5.13;;;19.30;99.90;;;;;;5051817;28;20655;-64
2021/08/14 01:04:51;;;;;;;5.43;4.83;;;19.30;99.90;;;;;;5052992;28;20466;-64
2021/08/14 01:07:18;;;;;;;6.13;5.53;;;19.20;99.90;;;;;;5051366;28;20574;-64
2021/08/14 01:09:46;;;;;;;8.17;5.40;;;19.10;99.90;;;;;;5052916;28;20436;-64
2021/08/14 01:12:16;;;;;;;8.03;5.83;;;19.10;99.90;;;;;;5053074;28;20408;-64
2021/08/14 01:14:44;;;;;;;6.63;5.73;;;19.10;99.90;;;;;;5053000;28;20533;-63
2021/08/14 01:17:10;;;;;;;7.10;5.90;;;19.00;99.90;;;;;;5062764;28;20407;-64
2021/08/14 01:19:35;;;;;;;6.00;5.40;;;18.90;99.90;;;;;;5075908;28;20431;-65
2021/08/14 01:22:03;;;;;;;6.43;5.67;;;18.90;99.90;;;;;;5076905;28;20421;-65
2021/08/14 01:24:34;;;;;;;6.70;5.83;;;18.90;99.90;;;;;;5077041;28;20201;-64
2021/08/14 01:26:59;;;;;;;7.30;5.50;;;18.80;99.90;;;;;;5056698;28;20421;-64
2021/08/14 01:29:25;;;;;;;6.70;5.37;;;18.70;99.90;;;;;;5056763;28;20436;-64
2021/08/14 01:31:51;;;;;;;6.00;4.90;;;18.70;99.90;;;;;;5056743;28;20197;-64
2021/08/14 01:34:20;;;;;;;5.07;4.67;;;18.70;99.90;;;;;;5056847;28;20451;-64
2021/08/14 01:36:50;;;;;;;5.87;5.27;;;18.70;99.90;;;;;;5056388;28;20161;-64
2021/08/14 01:39:16;;;;;;;6.03;5.00;;;18.70;99.90;;;;;;5055729;28;20798;-66
2021/08/14 01:42:03;;;;;;;5.70;4.83;;;18.70;99.90;;;;;;5055283;28;21006;-64
2021/08/14 01:44:31;;;;;;;8.23;6.27;;;18.70;99.90;;;;;;5056577;28;20423;-63
2021/08/14 01:46:56;;;;;;;7.83;6.20;;;18.60;99.90;;;;;;5056280;28;20779;-64
2021/08/14 01:49:23;;;;;;;6.57;5.47;;;18.60;99.90;;;;;;5056333;28;20427;-64
2021/08/14 01:51:48;;;;;;;6.13;4.93;;;18.60;99.90;;;;;;5056518;28;20173;-64
2021/08/14 01:54:14;;;;;;;6.40;5.50;;;18.50;99.90;;;;;;5056580;28;20511;-64
2021/08/14 01:56:40;;;;;;;6.00;5.10;;;18.50;99.90;;;;;;5056198;28;20417;-64
2021/08/14 01:59:06;;;;;;;6.40;5.00;;;18.50;99.90;;;;;;5056498;28;20419;-65
2021/08/14 02:01:32;;;;;;;6.70;5.60;;;18.50;99.90;;;;;;5056114;28;20537;-65
2021/08/14 02:03:58;;;;;;;5.73;5.13;;;18.40;99.90;;;;;;5067675;28;20425;-65
2021/08/14 02:06:25;;;;;;;8.90;6.33;;;18.40;99.90;;;;;;5076095;28;20579;-65
2021/08/14 02:08:52;;;;;;;5.87;5.27;;;18.30;99.90;;;;;;5075618;28;20470;-65
2021/08/14 02:11:20;;;;;;;6.00;5.43;;;18.30;99.90;;;;;;5076232;28;20431;-65
2021/08/14 02:13:48;;;;;;;6.80;6.10;;;18.20;99.90;;;;;;5076098;28;20413;-65
2021/08/14 02:16:15;;;;;;;7.70;6.90;;;18.20;99.90;;;;;;5075913;28;20435;-65
2021/08/14 02:18:41;;;;;;;6.50;5.83;;;18.20;99.90;;;;;;5062399;28;20980;-64
2021/08/14 02:21:08;;;;;;;6.53;5.90;;;18.20;99.90;;;;;;5056004;28;20420;-65
2021/08/14 02:23:35;;;;;;;6.50;5.83;;;18.20;99.90;;;;;;5055887;28;20791;-65
2021/08/14 02:26:01;;;;;;;7.53;6.73;;;18.10;99.90;;;;;;5055954;28;20484;-65
2021/08/14 02:28:28;;;;;;;6.27;5.67;;;18.10;99.90;;;;;;5063153;28;20507;-65
2021/08/14 02:30:54;;;;;;;6.90;6.20;;;18.10;99.90;;;;;;5074271;28;20182;-65
2021/08/14 02:33:20;;;;;;;6.93;6.33;;;18.10;99.90;;;;;;5075595;28;20915;-65
2021/08/14 02:35:47;;;;;;;6.37;5.73;;;18.10;99.90;;;;;;5075523;28;20559;-64
2021/08/14 02:38:12;;;;;;;5.57;5.10;;;18.00;99.90;;;;;;5075183;28;20189;-65
2021/08/14 02:40:38;;;;;;;6.70;5.80;;;18.00;99.90;;;;;;5075579;28;20406;-64
2021/08/14 02:43:04;;;;;;;6.90;6.00;;;17.90;99.90;;;;;;5075318;28;20610;-65
2021/08/14 02:45:31;;;;;;;5.97;5.00;;;17.90;99.90;;;;;;5075679;28;20620;-65
2021/08/14 02:47:57;;;;;;;8.80;5.93;;;17.90;99.90;;;;;;5075117;28;20406;-65
2021/08/14 02:50:23;;;;;;;6.13;5.53;;;17.90;99.90;;;;;;5075421;28;20416;-65
2021/08/14 02:52:50;;;;;;;8.20;5.80;;;17.80;99.90;;;;;;5075389;28;20175;-64
2021/08/14 02:55:16;;;;;;;6.33;5.40;;;17.80;99.90;;;;;;5065591;28;20461;-65
2021/08/14 02:57:41;;;;;;;6.20;5.60;;;17.80;99.90;;;;;;5054947;28;20931;-65
2021/08/14 03:00:08;;;;;;;6.13;5.53;;;17.80;99.90;;;;;;5055165;28;20405;-65
2021/08/14 03:02:33;;;;;;;7.43;6.03;;;17.70;99.90;;;;;;5055319;28;20628;-65
2021/08/14 03:04:59;;;;;;;7.03;5.73;;;17.70;99.90;;;;;;5055187;28;20409;-65
2021/08/14 03:07:24;;;;;;;7.53;5.23;;;17.70;99.90;;;;;;5054784;28;20176;-65
2021/08/14 03:09:50;;;;;;;6.60;5.80;;;17.70;99.90;;;;;;5054875;28;20711;-65
2021/08/14 03:12:17;;;;;;;6.23;5.40;;;17.60;99.90;;;;;;5055986;28;20189;-65
2021/08/14 03:14:42;;;;;;;6.27;5.67;;;17.60;99.90;;;;;;5054803;28;20205;-65
2021/08/14 03:17:08;;;;;;;6.67;6.03;;;17.50;99.90;;;;;;5054656;28;20763;-65
2021/08/14 03:19:33;;;;;;;8.97;6.67;;;17.50;99.90;;;;;;5054784;28;20191;-65
2021/08/14 03:21:59;;;;;;;6.33;5.73;;;17.50;99.90;;;;;;5054762;28;20171;-64
2021/08/14 03:24:25;;;;;;;6.30;5.70;;;17.50;99.90;;;;;;5060887;28;20178;-65
2021/08/14 03:26:51;;;;;;;7.53;6.10;;;17.50;99.90;;;;;;5073103;28;20941;-65
2021/08/14 03:29:17;;;;;;;7.93;7.17;;;17.40;99.90;;;;;;5074513;28;20194;-65
2021/08/14 03:31:42;;;;;;;9.53;5.20;;;17.40;99.90;;;;;;5074498;28;21052;-64
2021/08/14 03:34:08;;;;;;;7.90;6.67;;;17.40;99.90;;;;;;5074456;28;20455;-65
2021/08/14 03:36:34;;;;;;;11.60;6.97;;;17.40;99.90;;;;;;5074241;28;20251;-70
2021/08/14 03:39:00;;;;;;;8.67;5.43;;;17.40;99.90;;;;;;5065261;28;20194;-65
2021/08/14 03:41:26;;;;;;;6.80;5.90;;;17.40;99.90;;;;;;5053911;28;20182;-65
2021/08/14 03:43:51;;;;;;;6.10;5.13;;;17.40;99.90;;;;;;5054232;28;20436;-65
2021/08/14 03:46:17;;;;;;;8.13;6.00;;;17.40;99.90;;;;;;5054224;28;20254;-64
2021/08/14 03:48:43;;;;;;;8.40;6.10;;;17.30;99.90;;;;;;5052663;28;20198;-64
2021/08/14 03:51:08;;;;;;;14.03;7.00;;;17.30;99.90;;;;;;5054561;28;20579;-66
2021/08/14 03:53:34;;;;;;;12.33;6.20;;;17.30;99.90;;;;;;5054306;28;20174;-64
2021/08/14 03:56:00;;;;;;;5.73;5.23;;;17.30;99.90;;;;;;5053978;28;20203;-65
2021/08/14 03:58:25;;;;;;;8.53;6.33;;;17.30;99.90;;;;;;5055625;28;20196;-65
2021/08/14 04:00:51;;;;;;;5.80;5.30;;;17.30;99.90;;;;;;5074137;28;20172;-64
2021/08/14 04:03:17;;;;;;;5.60;4.97;;;17.30;99.90;;;;;;5073973;28;20697;-64
2021/08/14 04:05:42;;;;;;;8.43;7.73;;;17.30;99.90;;;;;;5073912;28;20255;-65
2021/08/14 04:08:08;;;;;;;6.90;5.47;;;17.20;99.90;;;;;;5073576;28;20247;-65
2021/08/14 04:10:33;;;;;;;9.57;6.87;;;17.30;99.90;;;;;;5073950;28;20636;-63
2021/08/14 04:12:59;;;;;;;9.93;5.53;;;17.30;99.90;;;;;;5073403;28;20177;-62
2021/08/14 04:15:25;;;;;;;5.97;5.40;;;17.20;99.90;;;;;;5073641;28;20208;-63
2021/08/14 04:17:51;;;;;;;7.20;6.50;;;17.20;99.90;;;;;;5057666;28;20198;-63
2021/08/14 04:20:17;;;;;;;6.73;6.07;;;17.20;99.90;;;;;;5061722;28;20646;-63
2021/08/14 04:22:43;;;;;;;8.47;6.60;;;17.20;99.90;;;;;;5058884;28;20178;-64
2021/08/14 04:25:09;;;;;;;6.13;5.47;;;17.20;99.90;;;;;;5066321;28;20426;-62
2021/08/14 04:27:34;;;;;;;9.10;7.63;;;17.10;99.90;;;;;;5072842;28;20177;-65
2021/08/14 04:30:04;;;;;;;6.43;5.83;;;17.20;99.90;;;;;;5073637;28;20435;-64
2021/08/14 04:32:34;;;;;;;6.10;5.43;;;17.20;99.90;;;;;;5055509;28;20231;-63
2021/08/14 04:35:08;;;;;;;5.83;5.17;;;17.20;99.90;;;;;;5053539;28;20457;-63
2021/08/14 04:37:35;;;;;;;6.10;5.30;;;17.20;99.90;;;;;;5053106;28;20399;-61
2021/08/14 04:40:01;;;;;;;5.00;4.50;;;17.20;99.90;;;;;;5053315;28;20768;-64
2021/08/14 04:42:27;;;;;;;7.00;6.30;;;17.30;99.90;;;;;;5053388;28;20413;-64
2021/08/14 04:44:52;;;;;;;5.83;5.27;;;17.30;99.90;;;;;;5053160;28;20830;-59
2021/08/14 04:47:19;;;;;;;11.60;6.30;;;17.40;99.90;;;;;;5052942;28;20179;-64
2021/08/14 04:49:44;;;;;;;6.40;5.77;;;17.60;99.90;;;;;;5053413;28;20193;-62
2021/08/14 04:52:10;;;;;;;6.57;5.97;;;17.70;99.90;;;;;;5053013;28;20410;-62
2021/08/14 04:54:36;;;;;;;7.03;6.27;;;18.00;99.90;;;;;;5052553;28;20196;-61
2021/08/14 04:57:01;;;;;;;6.80;6.23;;;18.20;99.90;;;;;;5053075;28;20646;-64
2021/08/14 04:59:27;;;;;;;6.50;5.43;;;18.20;99.90;;;;;;5053130;28;20204;-63
2021/08/14 05:01:53;;;;;;;8.57;6.07;;;18.40;99.90;;;;;;5053743;28;20538;-64
2021/08/14 05:04:18;;;;;;;8.43;6.00;;;18.60;99.90;;;;;;5072295;28;20194;-62
2021/08/14 05:06:44;;;;;;;6.00;5.40;;;18.80;99.90;;;;;;5064092;28;20516;-61
2021/08/14 05:09:10;;;;;;;7.87;5.13;;;19.20;99.90;;;;;;5056959;28;20432;-63
2021/08/14 05:11:36;;;;;;;7.23;5.40;;;19.50;99.90;;;;;;5057716;28;20426;-64
2021/08/14 05:14:02;;;;;;;6.50;6.00;;;19.80;99.90;;;;;;5071048;28;20398;-62
2021/08/14 05:16:27;;;;;;;6.43;5.53;;;19.70;99.90;;;;;;5071427;28;20667;-62
2021/08/14 05:18:53;;;;;;;6.23;5.63;;;19.70;99.90;;;;;;5072499;28;20224;-63
2021/08/14 05:21:19;;;;;;;7.07;5.70;;;19.60;99.90;;;;;;5072673;28;20177;-61
2021/08/14 05:23:44;;;;;;;6.80;5.90;;;19.50;99.90;;;;;;5065379;28;20471;-64
2021/08/14 05:26:10;;;;;;;7.67;6.60;;;19.40;99.90;;;;;;5052838;28;20183;-62
2021/08/14 05:28:35;;;;;;;5.57;4.97;;;19.30;99.90;;;;;;5052476;28;20227;-64
2021/08/14 05:31:01;;;;;;;9.30;5.87;;;19.40;99.90;;;;;;5052774;28;20181;-62
2021/08/14 05:33:27;;;;;;;7.20;5.70;;;19.40;99.90;;;;;;5052844;28;20177;-64
2021/08/14 05:35:53;;;;;;;7.67;5.50;;;19.40;99.90;;;;;;5052598;28;20230;-63
2021/08/14 05:38:18;;;;;;;6.97;5.37;;;19.50;99.90;;;;;;5052228;28;20204;-64
2021/08/14 05:40:44;;;;;;;7.67;5.93;;;19.60;99.90;;;;;;5052585;28;20178;-62
2021/08/14 05:43:10;;;;;;;7.00;6.13;;;19.70;99.90;;;;;;5052795;28;20169;-63
2021/08/14 05:45:35;;;;;;;6.77;5.60;;;19.80;99.90;;;;;;5052786;28;20521;-65
2021/08/14 05:48:03;;;;;;;10.47;7.00;;;20.00;99.90;;;;;;5052280;28;20177;-63
2021/08/14 05:50:29;;;;;;;5.97;5.47;;;20.10;99.90;;;;;;5052769;28;20174;-64
2021/08/14 05:52:54;;;;;;;6.60;5.67;;;20.30;99.90;;;;;;5053471;28;20427;-63
2021/08/14 05:55:20;;;;;;;7.03;6.10;;;20.40;99.90;;;;;;5062617;28;20204;-65
2021/08/14 05:57:46;;;;;;;5.87;5.37;;;20.50;99.90;;;;;;5072210;28;20637;-62
2021/08/14 06:00:12;;;;;;;5.53;5.03;;;20.60;99.90;;;;;;5072802;28;20173;-66
2021/08/14 06:02:37;;;;;;;7.20;6.20;;;20.70;99.90;;;;;;5072444;28;20158;-63
2021/08/14 06:05:03;;;;;;;5.73;5.23;;;20.70;99.90;;;;;;5074760;28;20492;-65
2021/08/14 06:07:29;;;;;;;6.17;5.57;;;20.70;99.90;;;;;;5075541;28;20185;-62
2021/08/14 06:09:55;;;;;;;6.80;5.73;;;20.60;99.90;;;;;;5076263;28;20469;-64
2021/08/14 06:12:20;;;;;;;7.20;5.73;;;20.70;99.90;;;;;;5076238;28;20179;-64
2021/08/14 06:14:46;;;;;;;5.63;5.03;;;20.70;99.90;;;;;;5076163;28;20582;-62
2021/08/14 06:17:11;;;;;;;6.80;5.43;;;20.80;99.90;;;;;;5074297;28;20173;-62
2021/08/14 06:19:37;;;;;;;6.07;5.50;;;20.90;99.90;;;;;;5076113;28;20185;-63
2021/08/14 06:22:04;;;;;;;7.30;6.23;;;20.90;99.90;;;;;;5061604;28;20203;-62
2021/08/14 06:24:29;;;;;;;6.57;5.97;;;20.90;99.90;;;;;;5055641;28;20249;-65
2021/08/14 06:26:55;;;;;;;7.33;6.63;;;20.90;99.90;;;;;;5055666;28;21012;-65
2021/08/14 06:29:20;;;;;;;6.13;5.53;;;21.00;99.90;;;;;;5055822;28;20193;-65
2021/08/14 06:31:46;;;;;;;6.10;4.83;;;21.10;99.90;;;;;;5055535;28;20189;-63
2021/08/14 06:34:12;;;;;;;7.10;5.43;;;21.30;99.90;;;;;;5055725;28;20197;-64
2021/08/14 06:36:37;;;;;;;6.20;5.60;;;21.30;99.90;;;;;;5055373;28;20174;-62
2021/08/14 06:39:03;;;;;;;5.47;4.97;;;21.40;99.90;;;;;;5055490;28;20197;-66
2021/08/14 06:41:28;;;;;;;5.80;5.10;;;21.60;99.90;;;;;;5055677;28;20174;-64
2021/08/14 06:43:54;;;;;;;8.07;5.27;;;21.80;99.90;;;;;;5055662;28;20166;-64
2021/08/14 06:46:20;;;;;;;5.47;4.97;;;22.00;99.90;;;;;;5055598;28;20171;-65
2021/08/14 06:48:46;;;;;;;5.33;4.80;;;22.20;99.90;;;;;;5054964;28;20672;-65
2021/08/14 06:51:13;;;;;;;5.23;4.73;;;22.30;99.90;;;;;;5065991;28;20173;-66
2021/08/14 06:53:39;;;;;;;5.07;4.60;;;22.50;99.90;;;;;;5075446;28;20547;-66
2021/08/14 06:56:05;;;;;;;6.97;5.00;;;22.70;99.90;;;;;;5075209;28;20453;-63
2021/08/14 06:58:31;;;;;;;7.53;5.20;;;23.00;99.90;;;;;;5074815;28;20468;-65
2021/08/14 07:00:56;;;;;;;5.93;5.43;;;23.20;99.90;;;;;;5075337;28;20168;-66
2021/08/14 07:03:22;;;;;;;7.07;5.10;;;23.30;99.90;;;;;;5075606;28;20171;-64
2021/08/14 07:05:47;;;;;;;5.43;5.00;;;23.30;99.90;;;;;;5073215;28;20174;-64
2021/08/14 07:08:13;;;;;;;6.53;5.47;;;23.40;99.90;;;;;;5074708;28;20279;-64
2021/08/14 07:10:39;;;;;;;5.93;5.33;;;23.40;99.90;;;;;;5075076;28;20233;-63
2021/08/14 07:13:04;;;;;;;5.13;4.43;;;23.60;99.90;;;;;;5074343;28;20209;-62
2021/08/14 07:15:30;;;;;;;6.67;5.60;;;23.70;99.90;;;;;;5054495;28;20215;-66
2021/08/14 07:17:56;;;;;;;5.00;4.50;;;23.80;99.90;;;;;;5069764;28;20173;-62
2021/08/14 07:20:22;;;;;;;5.53;5.03;;;23.90;99.90;;;;;;5074684;28;20408;-66
2021/08/14 07:22:48;;;;;;;6.37;5.77;;;24.00;99.90;;;;;;5074619;28;20422;-63
2021/08/14 07:25:14;;;;;;;5.67;5.17;;;24.20;99.90;;;;;;5074776;28;20177;-65
2021/08/14 07:27:39;;;;;;;5.70;4.63;;;24.40;99.90;;;;;;5074604;28;20523;-64
2021/08/14 07:30:06;;;;;;;5.40;4.90;;;24.60;99.90;;;;;;5073611;28;20205;-64
2021/08/14 07:32:31;;;;;;;5.20;4.70;;;24.90;99.90;;;;;;5074360;28;20196;-62
2021/08/14 07:34:57;;;;;;;4.60;4.30;;;25.30;99.90;;;;;;5074226;28;20530;-62
2021/08/14 07:37:22;;;;;;;6.50;4.47;;;26.20;99.90;;;;;;5074045;28;20497;-63
2021/08/14 07:39:48;;;;;;;5.60;5.10;;;27.50;99.90;;;;;;5073234;28;20204;-64
2021/08/14 07:42:14;;;;;;;5.90;5.13;;;28.70;99.90;;;;;;5074521;28;20222;-65
2021/08/14 07:44:39;;;;;;;6.00;5.20;;;30.00;99.70;;;;;;5056533;28;20558;-66
2021/08/14 07:47:05;;;;;;;6.00;5.50;;;31.30;96.50;;;;;;5054088;28;20177;-66
2021/08/14 07:49:31;;;;;;;5.70;5.10;;;32.60;93.40;;;;;;5054141;28;20525;-67
2021/08/14 07:51:57;;;;;;;5.37;4.87;;;33.60;91.80;;;;;;5054376;28;20185;-65
2021/08/14 07:54:23;;;;;;;6.30;5.70;;;34.60;90.60;;;;;;5054081;28;20471;-62
2021/08/14 07:56:51;;;;;;;5.43;4.43;;;35.60;86.90;;;;;;5053918;28;20415;-64
2021/08/14 07:59:17;;;;;;;5.90;5.40;;;36.40;82.30;;;;;;5069373;28;20195;-63
2021/08/14 08:01:42;;;;;;;5.90;5.30;;;37.30;79.00;;;;;;5074186;28;20411;-67
2021/08/14 08:04:08;;;;;;;6.10;5.60;;;37.90;75.70;;;;;;5073870;28;20169;-64
2021/08/14 08:06:34;;;;;;;5.97;5.57;;;38.50;73.90;;;;;;5073530;28;20172;-66
2021/08/14 08:08:59;;;;;;;5.70;5.27;;;38.90;70.80;;;;;;5074054;28;20189;-63
2021/08/14 08:11:25;;;;;;;5.57;5.17;;;39.20;69.90;;;;;;5070869;28;20179;-63
2021/08/14 08:13:50;;;;;;;5.90;5.40;;;39.30;68.20;;;;;;5053734;28;20173;-64
2021/08/14 08:16:16;;;;;;;5.97;5.47;;;39.60;66.00;;;;;;5053673;28;20180;-61
2021/08/14 08:18:42;;;;;;;5.93;5.53;;;39.90;63.30;;;;;;5053077;28;20193;-66
2021/08/14 08:21:07;;;;;;;6.27;5.77;;;40.10;62.80;;;;;;5053912;28;20579;-64
2021/08/14 08:23:33;;;;;;;6.60;6.00;;;40.30;63.00;;;;;;5072850;28;20256;-65
2021/08/14 08:25:59;;;;;;;6.60;6.10;;;40.20;62.00;;;;;;5073494;28;20218;-61
2021/08/14 08:28:24;;;;;;;6.37;5.97;;;40.20;62.20;;;;;;5072224;28;20195;-65
2021/08/14 08:30:50;;;;;;;7.13;6.53;;;40.20;62.20;;;;;;5073558;28;20177;-65
2021/08/14 08:33:16;;;;;;;5.50;5.20;;;40.40;59.60;;;;;;5055603;28;20648;-63
2021/08/14 08:35:42;;;;;;;5.20;4.80;;;40.60;58.90;;;;;;5053257;28;20447;-62
2021/08/14 08:38:08;;;;;;;5.73;5.40;;;41.20;57.80;;;;;;5053167;28;20193;-65
2021/08/14 08:40:37;;;;;;;5.73;5.40;;;41.80;56.50;;;;;;5053262;28;20185;-65
2021/08/14 08:43:03;;;;;;;5.60;5.20;;;41.90;55.50;;;;;;5070138;28;20230;-63
2021/08/14 08:45:30;;;;;;;6.10;5.60;;;41.90;56.10;;;;;;5073347;28;20419;-65
2021/08/14 08:47:57;;;;;;;6.20;5.80;;;42.10;55.70;;;;;;5072729;28;20589;-63
2021/08/14 08:50:26;;;;;;;6.27;5.87;;;42.10;56.00;;;;;;5073148;28;20419;-66
2021/08/14 08:52:52;;;;;;;6.10;5.70;;;41.80;55.60;;;;;;5073179;28;20749;-65
2021/08/14 08:55:21;;;;;;;6.13;5.63;;;41.80;54.80;;;;;;5073083;28;20549;-65
2021/08/14 08:57:47;;;;;;;6.60;6.00;;;41.30;55.40;;;;;;5055652;28;20174;-62
2021/08/14 09:00:16;;;;;;;5.93;5.53;;;41.00;55.90;;;;;;5052926;28;20977;-62
2021/08/14 09:02:46;;;;;;;5.40;5.10;;;40.90;55.20;;;;;;5054009;28;20181;-62
2021/08/14 09:05:14;;;;;;;5.97;5.40;;;41.30;54.80;;;;;;5052977;28;20456;-65
2021/08/14 09:07:41;;;;;;;7.37;6.80;;;41.60;53.70;;;;;;5052474;28;20404;-62
2021/08/14 09:10:10;;;;;;;6.50;5.90;;;41.80;54.00;;;;;;5052667;28;20542;-65
2021/08/14 09:12:44;;;;;;;5.03;4.63;;;41.80;53.70;;;;;;5053070;28;20965;-64
2021/08/14 09:15:19;;;;;;;5.80;5.40;;;41.90;53.10;;;;;;5052796;28;20926;-63
2021/08/14 09:17:45;;;;;;;5.93;5.53;;;41.90;52.60;;;;;;5052381;28;20470;-65
2021/08/14 09:20:15;;;;;;;6.23;5.83;;;41.70;53.10;;;;;;5052915;28;20479;-65
2021/08/14 09:23:02;;;;;;;6.03;5.63;;;41.60;52.70;;;;;;5053023;28;20422;-63
2021/08/14 09:25:56;;;;;;;5.37;5.07;;;41.50;52.50;;;;;;5052919;28;20500;-63
2021/08/14 09:28:39;;;;;;;5.80;5.50;;;41.50;52.90;;;;;;5055336;28;20435;-66
2021/08/14 09:31:07;;;;;;;6.10;5.70;;;41.50;53.00;;;;;;5072825;28;20812;-63
2021/08/14 09:33:36;;;;;;;6.07;5.67;;;41.90;53.10;;;;;;5072753;28;20398;-66
2021/08/14 09:36:07;;;;;;;6.10;5.70;;;42.40;51.10;;;;;;5073012;28;20410;-62
2021/08/14 09:38:46;;;;;;;6.00;5.50;;;42.50;50.90;;;;;;5072426;28;20433;-65
2021/08/14 09:41:20;;;;;;;6.07;5.67;;;42.60;50.00;;;;;;5076735;28;20505;-64
2021/08/14 09:43:48;;;;;;;6.17;5.67;;;42.70;50.20;;;;;;5068296;28;20415;-65
2021/08/14 09:46:14;;;;;;;6.40;5.77;;;42.60;50.10;;;;;;5056548;28;20455;-63
2021/08/14 09:48:41;;;;;;;5.87;5.50;;;42.50;49.80;;;;;;5056284;28;20553;-66
2021/08/14 09:51:30;;;;;;;5.83;5.43;;;41.90;50.10;;;;;;5057291;28;20407;-65
2021/08/14 09:53:57;;;;;;;6.30;5.90;;;41.90;50.20;;;;;;5076646;28;20411;-62
2021/08/14 09:56:26;;;;;;;5.73;5.33;;;41.80;50.50;;;;;;5076572;28;20406;-66
2021/08/14 09:58:52;;;;;;;6.20;5.77;;;41.90;50.30;;;;;;5075610;28;20418;-64
2021/08/14 10:01:19;;;;;;;5.87;5.50;;;42.20;50.10;;;;;;5076241;28;20395;-62
2021/08/14 10:03:46;;;;;;;5.37;5.07;;;42.50;49.80;;;;;;5076359;28;20446;-65
2021/08/14 10:06:13;;;;;;;5.43;5.03;;;42.10;49.80;;;;;;5075979;28;20454;-64
2021/08/14 10:08:40;;;;;;;5.27;4.97;;;41.10;50.10;;;;;;5075751;28;20461;-64
2021/08/14 10:11:10;;;;;;;6.23;5.63;;;40.80;51.20;;;;;;5076196;28;20407;-61
2021/08/14 10:13:38;;;;;;;6.10;5.70;;;40.90;51.20;;;;;;5075888;28;20418;-66
2021/08/14 10:16:04;;;;;;;6.30;5.70;;;41.00;50.70;;;;;;5075977;28;20438;-62
2021/08/14 10:18:31;;;;;;;6.17;5.77;;;41.00;50.70;;;;;;5075528;28;20423;-65
2021/08/14 10:20:56;;;;;;;5.67;5.27;;;41.20;50.60;;;;;;5074214;28;20414;-62
2021/08/14 10:23:23;;;;;;;5.53;5.23;;;41.50;50.30;;;;;;5076042;28;20415;-65
2021/08/14 10:26:11;;;;;;;5.40;5.10;;;41.80;49.60;;;;;;5075603;28;20200;-62
2021/08/14 10:28:42;;;;;;;6.13;5.63;;;42.10;49.60;;;;;;5075617;28;20426;-63
2021/08/14 10:31:08;;;;;;;5.03;4.73;;;42.10;49.10;;;;;;5075657;28;20410;-62
2021/08/14 10:33:37;;;;;;;6.10;5.77;;;41.90;49.10;;;;;;5075867;28;20404;-64
2021/08/14 10:36:18;;;;;;;6.67;6.00;;;41.10;49.80;;;;;;5074722;28;20516;-61
2021/08/14 10:38:45;;;;;;;5.63;5.13;;;40.50;50.60;;;;;;5075332;28;20426;-63
2021/08/14 10:41:11;;;;;;;6.97;5.47;;;40.30;51.20;;;;;;5075584;28;20395;-63
2021/08/14 10:43:55;;;;;;;5.63;5.23;;;39.70;51.70;;;;;;5075620;28;20871;-65
2021/08/14 10:46:35;;;;;;;4.70;4.40;;;39.20;52.90;;;;;;5075534;28;20786;-62
2021/08/14 10:49:01;;;;;;;5.87;5.47;;;39.00;53.40;;;;;;5075499;28;20551;-63
2021/08/14 10:51:51;;;;;;;5.43;5.03;;;39.00;53.00;;;;;;5056384;28;20511;-63
2021/08/14 10:54:38;;;;;;;6.23;5.73;;;38.70;53.10;;;;;;5055696;28;20196;-63
2021/08/14 10:57:05;;;;;;;6.03;5.50;;;38.60;53.20;;;;;;5055042;28;20404;-66
2021/08/14 10:59:40;;;;;;;6.47;5.87;;;38.10;54.10;;;;;;5055088;28;20943;-65
2021/08/14 11:02:12;;;;;;;5.60;5.10;;;37.90;54.40;;;;;;5055159;28;20910;-63
2021/08/14 11:04:58;;;;;;;5.50;5.10;;;37.70;54.30;;;;;;5059788;28;20433;-62
2021/08/14 11:07:23;;;;;;;5.10;4.60;;;37.30;55.50;;;;;;5074614;28;20506;-61
2021/08/14 11:10:10;;;;;;;6.00;5.50;;;37.00;55.30;;;;;;5074763;28;20466;-66
2021/08/14 11:12:37;;;;;;;5.37;4.93;;;37.00;55.30;;;;;;5074875;28;20199;-62
2021/08/14 11:15:22;;;;;;;7.30;5.93;;;36.60;56.00;;;;;;5074970;28;20432;-64
2021/08/14 11:17:50;;;;;;;6.43;5.83;;;35.90;56.80;;;;;;5074342;28;20411;-66
2021/08/14 11:20:24;;;;;;;5.93;5.43;;;35.40;57.70;;;;;;5074613;28;20443;-64
2021/08/14 11:22:54;;;;;;;6.97;6.37;;;34.80;60.80;;;;;;5059691;28;20457;-62
2021/08/14 11:25:23;;;;;;;7.47;5.13;;;34.40;61.90;;;;;;5054501;28;21055;-67
2021/08/14 11:27:56;;;;;;;5.50;5.10;;;33.70;60.20;;;;;;5053963;28;20483;-62
2021/08/14 11:30:25;;;;;;;6.27;5.77;;;33.40;62.90;;;;;;5053246;28;20413;-64
2021/08/14 11:32:52;;;;;;;5.37;4.87;;;32.90;64.10;;;;;;5053999;28;20399;-61
2021/08/14 11:35:20;;;;;;;5.70;5.20;;;32.40;64.10;;;;;;5054395;28;20397;-65
2021/08/14 11:38:00;;;;;;;5.70;5.20;;;32.10;66.40;;;;;;5053920;28;20386;-61
2021/08/14 11:40:28;;;;;;;8.50;5.20;;;32.10;66.90;;;;;;5054552;28;20415;-62
2021/08/14 11:42:57;;;;;;;4.90;4.40;;;31.90;68.20;;;;;;5054460;28;20476;-65
2021/08/14 11:45:22;;;;;;;5.57;4.80;;;31.90;70.40;;;;;;5053099;28;20476;-63
2021/08/14 11:47:58;;;;;;;5.33;4.93;;;32.00;69.50;;;;;;5054279;28;20383;-62
2021/08/14 11:50:30;;;;;;;6.20;5.70;;;32.20;70.30;;;;;;5053087;28;20180;-63
2021/08/14 11:52:56;;;;;;;6.10;5.50;;;32.30;72.00;;;;;;5054480;28;20473;-64
2021/08/14 11:55:22;;;;;;;6.60;5.20;;;32.40;67.90;;;;;;5054386;28;20509;-66
2021/08/14 11:57:51;;;;;;;5.07;4.67;;;32.40;68.30;;;;;;5053780;28;20312;-62
2021/08/14 12:00:20;;;;;;;6.10;5.50;;;32.30;67.50;;;;;;5054580;28;20177;-66
2021/08/14 12:02:47;;;;;;;5.23;4.73;;;32.20;68.80;;;;;;5058799;28;20907;-62
2021/08/14 12:05:21;;;;;;;7.73;5.20;;;32.10;68.90;;;;;;5074049;28;20421;-67
2021/08/14 12:07:47;;;;;;;7.27;5.93;;;32.10;71.90;;;;;;5073533;28;20414;-63
2021/08/14 12:10:13;;;;;;;5.23;4.73;;;32.20;70.80;;;;;;5073895;28;20403;-65
2021/08/14 12:12:38;;;;;;;6.67;6.07;;;32.20;68.80;;;;;;5073883;28;20200;-65
2021/08/14 12:15:11;;;;;;;5.50;4.97;;;32.10;69.50;;;;;;5073786;28;20164;-66
2021/08/14 12:17:43;;;;;;;5.43;4.93;;;31.90;68.80;;;;;;5067034;28;20176;-64
2021/08/14 12:20:10;;;;;;;5.77;5.27;;;31.80;69.10;;;;;;5053885;28;20383;-67
2021/08/14 12:22:37;;;;;;;5.50;5.00;;;31.70;70.00;;;;;;5054079;28;20910;-63
2021/08/14 12:25:24;;;;;;;5.57;5.13;;;31.50;69.20;;;;;;5053739;28;20514;-64
2021/08/14 12:27:50;;;;;;;4.37;4.07;;;31.40;70.50;;;;;;5068015;28;20470;-62
2021/08/14 12:30:23;;;;;;;5.90;4.93;;;31.50;71.40;;;;;;5073724;28;20409;-64
2021/08/14 12:32:53;;;;;;;5.13;4.63;;;31.50;71.20;;;;;;5073191;28;20196;-64
2021/08/14 12:35:24;;;;;;;5.90;5.30;;;31.50;71.00;;;;;;5073691;28;20390;-64
2021/08/14 12:37:50;;;;;;;5.70;5.23;;;31.40;70.50;;;;;;5073143;28;20403;-63
2021/08/14 12:40:24;;;;;;;5.23;4.73;;;31.30;70.70;;;;;;5073649;28;20464;-64
2021/08/14 12:42:50;;;;;;;5.70;5.13;;;31.20;71.00;;;;;;5073032;28;20398;-63
2021/08/14 12:45:24;;;;;;;6.37;5.33;;;31.10;71.80;;;;;;5073412;28;20461;-61
2021/08/14 12:47:51;;;;;;;4.77;4.37;;;31.00;73.20;;;;;;5071664;28;20469;-64